Chachapoyas, Peru
Current Conditions -  °F | °C
As of 7:30 AM on Thursday 18 Dec 2014 (Local Time) from SPJR Reporting Station
Overcast Overcast  
Wind Chill: 55°   Ceiling: 4500
Heat Index: 55°   Visibility: 6mi
Dew Point: 52°   Wind: 0mph
Humidity: 88%   Direction: NA
Pressure: 30.39"   Gusts: NA
Location:  6.23°S, 77.87°W
Report Text: SPJR 181230Z 00000KT 9999 FEW035 OVC045 13/11 Q1029
Loading
Personal Weather Stations






























Interactive Weather Map New forecast layout! Learn more

10-Day Weather Forecast

Advertisements
Track Severe Weather on mobile